Austin, Texas
Traffic Map
Current Weather Conditions
Austin, Texas
Clear
Clear
93°
Feels Like: 101°
Wind Chill: 93° Ceiling: Unl
Heat Index: 101° Visibility: 9mi
Dew Point: 72° Wind: 5mph
Humidity: 50% Direction: ° ()
Pressure: 29.92in Gusts: 0mph
Raw Report DataKATT 312051Z AUTO VRB04KT 9SM CLR 34/22 A2992 RMK AO2 SLP117 T03390222 58026
Traffic Incident Summary
Active as of:
Severity:
Category:
InformationThere was an issue retrieving the traffic information for this location. Please try a different location or try again shortly.
Advertisements
Track Severe Weather on mobile